^^
Station Historical Data
Daily Summary for March 5, 2017 Units:  English    Metric   Both
« Previous Day
Next Day »
Daily Weekly Monthly Yearly Custom
  High: Low: Average:
Temperature: 33.2 °F 11.5 °F 21.5 °F
Dew Point: 0.2 °F -5.3 °F -2.2 °F
Humidity: 51% 21% 36%
Wind Speed: 7.0mph 0.0mph 1.7mph
Wind Gust: 16.0mph - -
Wind- - WSW
Pressure: 30.69 in 30.53 in -
Precipitation: 0.00 in    
Historical Graphs
 
 
Tabular Data for March 5, 2017
Time Temperature Dew Point Pressure Wind Wind Speed Wind Gust Humidity Rainfall Rate (Hourly) Conditions
00:00 13.7 °F -4.2 °F 30.62 in East 3.0 mph 12.0 mph 44% 0.00 in CLR
00:15 13.5 °F -3.5 °F 30.63 in North 1.0 mph 14.0 mph 46% 0.00 in CLR
00:30 13.4 °F -3.6 °F 30.63 in NNW 5.0 mph 14.0 mph 46% 0.00 in CLR
00:45 13.3 °F -4.1 °F 30.63 in NW 3.0 mph 13.0 mph 45% 0.00 in CLR
01:00 13.1 °F -3.8 °F 30.63 in East 1.0 mph 12.0 mph 46% 0.00 in CLR
02:15 13.0 °F -3.0 °F 30.63 in NNW 2.0 mph 5.0 mph 48% 0.00 in CLR
02:30 12.9 °F -3.6 °F 30.63 in Calm   5.0 mph 47% 0.00 in CLR
02:45 13.0 °F -3.9 °F 30.62 in NNE 1.0 mph 8.0 mph 46% 0.00 in CLR
03:00 13.0 °F -3.5 °F 30.62 in North 1.0 mph 7.0 mph 47% 0.00 in CLR
03:15 13.1 °F -3.4 °F 30.62 in North 2.0 mph 10.0 mph 47% 0.00 in CLR
03:30 13.0 °F -3.5 °F 30.62 in North 2.0 mph 10.0 mph 47% 0.00 in CLR
03:45 12.9 °F -3.6 °F 30.62 in North 1.0 mph 13.0 mph 47% 0.00 in CLR
04:00 12.6 °F -3.4 °F 30.63 in Calm   8.0 mph 48% 0.00 in CLR
04:15 12.4 °F -3.6 °F 30.64 in NW 1.0 mph 6.0 mph 48% 0.00 in CLR
04:30 12.3 °F -3.3 °F 30.65 in SSW 1.0 mph 5.0 mph 49% 0.00 in CLR
04:45 11.9 °F -3.6 °F 30.65 in WNW 1.0 mph 12.0 mph 49% 0.00 in CLR
05:00 11.8 °F -3.3 °F 30.65 in North 2.0 mph 6.0 mph 50% 0.00 in CLR
05:15 12.0 °F -3.5 °F 30.66 in NW 1.0 mph 6.0 mph 49% 0.00 in CLR
05:45 11.7 °F -4.2 °F 30.67 in NNE 1.0 mph 9.0 mph 48% 0.00 in CLR
06:00 11.5 °F -4.9 °F 30.67 in Calm   9.0 mph 47% 0.00 in CLR
06:15 11.5 °F -5.3 °F 30.68 in NNW 2.0 mph 4.0 mph 46% 0.00 in CLR
06:30 11.5 °F -5.3 °F 30.68 in NNE 1.0 mph 10.0 mph 46% 0.00 in CLR
06:45 11.6 °F -5.2 °F 30.68 in NNE 2.0 mph 9.0 mph 46% 0.00 in CLR
07:00 11.9 °F -5.0 °F 30.68 in NW 2.0 mph 13.0 mph 46% 0.00 in CLR
07:15 12.1 °F -4.8 °F 30.69 in North 1.0 mph 9.0 mph 46% 0.00 in CLR
07:30 12.3 °F -3.7 °F 30.69 in NNW 3.0 mph 9.0 mph 48% 0.00 in CLR
07:45 12.6 °F -3.0 °F 30.69 in North 2.0 mph 9.0 mph 49% 0.00 in CLR
08:00 12.6 °F -2.1 °F 30.69 in Calm   10.0 mph 51% 0.00 in CLR
08:15 13.2 °F -1.6 °F 30.69 in NNW 1.0 mph 9.0 mph 51% 0.00 in CLR
08:30 14.3 °F -1.0 °F 30.69 in NNW 1.0 mph 12.0 mph 50% 0.00 in CLR
08:45 15.1 °F -0.2 °F 30.69 in North 1.0 mph 8.0 mph 50% 0.00 in CLR
09:00 16.0 °F -0.7 °F 30.69 in NNW 3.0 mph 9.0 mph 47% 0.00 in CLR
09:15 17.0 °F -1.2 °F 30.69 in North 3.0 mph 10.0 mph 44% 0.00 in CLR
09:30 17.8 °F -1.5 °F 30.69 in NNW 2.0 mph 9.0 mph 42% 0.00 in CLR
09:45 17.9 °F -2.4 °F 30.69 in NNW 6.0 mph 14.0 mph 40% 0.00 in CLR
10:00 18.6 °F -2.3 °F 30.68 in NNW 2.0 mph 12.0 mph 39% 0.00 in CLR
10:15 19.0 °F -3.0 °F 30.68 in NNW 6.0 mph 12.0 mph 37% 0.00 in CLR
10:30 19.7 °F -2.4 °F 30.68 in NNW 5.0 mph 13.0 mph 37% 0.00 in CLR
10:45 20.6 °F -2.2 °F 30.67 in NW 5.0 mph 12.0 mph 36% 0.00 in CLR
11:00 21.4 °F -2.1 °F 30.67 in NW 7.0 mph 13.0 mph 35% 0.00 in CLR
11:15 22.3 °F -0.1 °F 30.67 in NNW 5.0 mph 12.0 mph 37% 0.00 in CLR
11:30 23.6 °F -0.7 °F 30.67 in NW 3.0 mph 13.0 mph 34% 0.00 in CLR
11:45 23.8 °F -1.2 °F 30.66 in NNW 3.0 mph 12.0 mph 33% 0.00 in CLR
12:00 24.8 °F -0.9 °F 30.65 in NNW 2.0 mph 15.0 mph 32% 0.00 in CLR
12:15 25.4 °F -1.1 °F 30.64 in NNW 3.0 mph 12.0 mph 31% 0.00 in CLR
12:30 26.3 °F -0.3 °F 30.63 in NNW 3.0 mph 12.0 mph 31% 0.00 in CLR
12:45 26.6 °F -2.2 °F 30.62 in NNW 5.0 mph 14.0 mph 28% 0.00 in CLR
13:00 27.3 °F -2.3 °F 30.61 in North 6.0 mph 13.0 mph 27% 0.00 in CLR
13:15 28.2 °F -2.4 °F 30.60 in North 2.0 mph 13.0 mph 26% 0.00 in CLR
13:30 28.8 °F -4.4 °F 30.59 in North 5.0 mph 14.0 mph 23% 0.00 in CLR
13:45 29.5 °F -2.1 °F 30.58 in NNW 3.0 mph 13.0 mph 25% 0.00 in CLR
14:00 30.1 °F -1.6 °F 30.57 in North 3.0 mph 9.0 mph 25% 0.00 in CLR
14:15 30.4 °F -2.1 °F 30.56 in NNW 3.0 mph 12.0 mph 24% 0.00 in CLR
14:30 31.2 °F -1.5 °F 30.56 in NNW 2.0 mph 10.0 mph 24% 0.00 in CLR
14:45 31.3 °F -2.3 °F 30.56 in NW 5.0 mph 16.0 mph 23% 0.00 in CLR
15:00 31.4 °F -2.2 °F 30.56 in North 6.0 mph 12.0 mph 23% 0.00 in CLR
15:15 31.3 °F -2.3 °F 30.55 in Calm   12.0 mph 23% 0.00 in CLR
15:30 32.0 °F -2.6 °F 30.55 in North 2.0 mph 12.0 mph 22% 0.00 in CLR
15:45 32.3 °F -2.4 °F 30.55 in North 2.0 mph 10.0 mph 22% 0.00 in CLR
16:00 32.4 °F -3.3 °F 30.54 in NNW 2.0 mph 9.0 mph 21% 0.00 in CLR
16:15 32.6 °F -3.1 °F 30.54 in North 3.0 mph 12.0 mph 21% 0.00 in CLR
16:30 33.2 °F -1.6 °F 30.53 in North 1.0 mph 9.0 mph 22% 0.00 in CLR
16:45 33.0 °F -2.8 °F 30.53 in North 3.0 mph 7.0 mph 21% 0.00 in CLR
17:00 32.8 °F -2.0 °F 30.53 in North 1.0 mph 6.0 mph 22% 0.00 in CLR
17:15 32.3 °F -2.4 °F 30.53 in Calm   6.0 mph 22% 0.00 in CLR
17:30 31.8 °F -1.9 °F 30.53 in NNE 1.0 mph 6.0 mph 23% 0.00 in CLR
17:45 30.4 °F -2.2 °F 30.54 in Calm   4.0 mph 24% 0.00 in CLR
18:00 29.6 °F -2.8 °F 30.54 in Calm   4.0 mph 24% 0.00 in CLR
18:15 28.9 °F -1.8 °F 30.55 in Calm   3.0 mph 26% 0.00 in CLR
18:30 28.1 °F -0.1 °F 30.56 in Calm   4.0 mph 29% 0.00 in CLR
18:45 27.7 °F -0.5 °F 30.56 in Calm   3.0 mph 29% 0.00 in CLR
19:00 26.8 °F -0.6 °F 30.56 in Calm   1.0 mph 30% 0.00 in CLR
19:15 26.3 °F -0.3 °F 30.56 in Calm   2.0 mph 31% 0.00 in CLR
19:30 26.0 °F -1.3 °F 30.56 in Calm   1.0 mph 30% 0.00 in CLR
19:45 25.2 °F -0.6 °F 30.56 in Calm     32% 0.00 in CLR
20:00 24.6 °F -1.1 °F 30.57 in Calm   1.0 mph 32% 0.00 in CLR
20:15 24.8 °F -0.9 °F 30.57 in Calm   2.0 mph 32% 0.00 in CLR
20:30 24.7 °F -0.4 °F 30.57 in Calm   1.0 mph 33% 0.00 in CLR
20:45 23.7 °F -0.6 °F 30.57 in Calm     34% 0.00 in CLR
21:00 23.3 °F -0.4 °F 30.57 in Calm   1.0 mph 35% 0.00 in CLR
21:15 23.3 °F 0.2 °F 30.57 in Calm   1.0 mph 36% 0.00 in CLR
21:30 22.9 °F -0.1 °F 30.57 in Calm     36% 0.00 in CLR
21:45 23.1 °F 0.0 °F 30.57 in Calm     36% 0.00 in CLR
22:00 23.7 °F -0.7 °F 30.57 in Calm   1.0 mph 34% 0.00 in CLR
22:15 24.0 °F -1.6 °F 30.57 in Calm   1.0 mph 32% 0.00 in CLR
22:30 24.1 °F -1.5 °F 30.57 in Calm   1.0 mph 32% 0.00 in CLR
22:45 24.8 °F -1.6 °F 30.57 in Calm   1.0 mph 31% 0.00 in CLR
23:00 24.4 °F -2.0 °F 30.57 in Calm   2.0 mph 31% 0.00 in CLR
23:15 24.9 °F -1.6 °F 30.57 in Calm   2.0 mph 31% 0.00 in CLR
23:30 24.7 °F -1.7 °F 30.57 in Calm   1.0 mph 31% 0.00 in CLR
23:45 24.5 °F 0.1 °F 30.56 in Calm   1.0 mph 34% 0.00 in CLR
TarryTown NY Weather
Compliments of Weather Underground - 1.5 mb